sensor_id;sensor_type;location;lat;lon;timestamp;P1;durP1;ratioP1;P2;durP2;ratioP2
37771;SDS011;23610;59.380;24.642;2023-05-10T00:01:16;18.17;;;6.88;;
37771;SDS011;23610;59.380;24.642;2023-05-10T00:06:19;17.33;;;8.13;;
37771;SDS011;23610;59.380;24.642;2023-05-10T00:11:21;12.68;;;7.40;;
37771;SDS011;23610;59.380;24.642;2023-05-10T00:16:24;11.57;;;6.47;;
37771;SDS011;23610;59.380;24.642;2023-05-10T00:21:26;8.98;;;5.10;;
37771;SDS011;23610;59.380;24.642;2023-05-10T00:26:29;6.75;;;5.22;;
37771;SDS011;23610;59.380;24.642;2023-05-10T00:31:32;18.70;;;6.70;;
37771;SDS011;23610;59.380;24.642;2023-05-10T00:36:35;7.93;;;4.63;;
37771;SDS011;23610;59.380;24.642;2023-05-10T00:41:38;10.60;;;5.65;;
37771;SDS011;23610;59.380;24.642;2023-05-10T00:46:41;9.75;;;5.00;;
37771;SDS011;23610;59.380;24.642;2023-05-10T00:51:44;16.50;;;5.45;;
37771;SDS011;23610;59.380;24.642;2023-05-10T00:56:46;8.20;;;5.28;;
37771;SDS011;23610;59.380;24.642;2023-05-10T01:01:50;7.07;;;4.45;;
37771;SDS011;23610;59.380;24.642;2023-05-10T01:06:53;10.77;;;4.45;;
37771;SDS011;23610;59.380;24.642;2023-05-10T01:11:56;9.07;;;5.15;;
37771;SDS011;23610;59.380;24.642;2023-05-10T01:16:58;22.40;;;8.38;;
37771;SDS011;23610;59.380;24.642;2023-05-10T01:32:59;12.07;;;5.70;;
37771;SDS011;23610;59.380;24.642;2023-05-10T01:49:25;7.20;;;4.18;;
37771;SDS011;23610;59.380;24.642;2023-05-10T01:54:31;10.55;;;4.53;;
37771;SDS011;23610;59.380;24.642;2023-05-10T01:59:36;9.07;;;5.07;;
37771;SDS011;23610;59.380;24.642;2023-05-10T02:04:44;12.90;;;4.75;;
37771;SDS011;23610;59.380;24.642;2023-05-10T02:09:47;8.23;;;4.95;;
37771;SDS011;23610;59.380;24.642;2023-05-10T02:14:51;12.00;;;4.80;;
37771;SDS011;23610;59.380;24.642;2023-05-10T02:19:55;7.20;;;4.28;;
37771;SDS011;23610;59.380;24.642;2023-05-10T02:24:59;6.60;;;4.07;;
37771;SDS011;23610;59.380;24.642;2023-05-10T02:30:03;9.55;;;3.80;;
37771;SDS011;23610;59.380;24.642;2023-05-10T02:35:08;11.63;;;5.03;;
37771;SDS011;23610;59.380;24.642;2023-05-10T02:40:12;6.80;;;4.43;;
37771;SDS011;23610;59.380;24.642;2023-05-10T02:45:17;8.05;;;4.70;;
37771;SDS011;23610;59.380;24.642;2023-05-10T02:50:25;11.38;;;4.50;;
37771;SDS011;23610;59.380;24.642;2023-05-10T02:55:32;9.77;;;4.97;;
37771;SDS011;23610;59.380;24.642;2023-05-10T03:00:38;8.57;;;5.00;;
37771;SDS011;23610;59.380;24.642;2023-05-10T03:05:41;9.23;;;4.68;;
37771;SDS011;23610;59.380;24.642;2023-05-10T03:10:54;7.90;;;4.80;;
37771;SDS011;23610;59.380;24.642;2023-05-10T03:16:27;5.80;;;3.75;;
37771;SDS011;23610;59.380;24.642;2023-05-10T03:21:37;8.00;;;4.05;;
37771;SDS011;23610;59.380;24.642;2023-05-10T03:26:46;7.50;;;4.05;;
37771;SDS011;23610;59.380;24.642;2023-05-10T03:31:52;10.07;;;4.03;;
37771;SDS011;23610;59.380;24.642;2023-05-10T03:36:54;10.88;;;5.18;;
37771;SDS011;23610;59.380;24.642;2023-05-10T03:41:58;10.50;;;6.05;;
37771;SDS011;23610;59.380;24.642;2023-05-10T03:47:01;12.27;;;8.27;;
37771;SDS011;23610;59.380;24.642;2023-05-10T03:52:04;11.57;;;5.47;;
37771;SDS011;23610;59.380;24.642;2023-05-10T03:57:07;12.65;;;5.32;;
37771;SDS011;23610;59.380;24.642;2023-05-10T04:02:10;10.65;;;4.97;;
37771;SDS011;23610;59.380;24.642;2023-05-10T04:07:12;8.68;;;4.50;;
37771;SDS011;23610;59.380;24.642;2023-05-10T04:12:15;9.73;;;4.20;;
37771;SDS011;23610;59.380;24.642;2023-05-10T04:17:18;8.10;;;3.63;;
37771;SDS011;23610;59.380;24.642;2023-05-10T04:22:21;7.80;;;3.72;;
37771;SDS011;23610;59.380;24.642;2023-05-10T04:27:23;7.70;;;4.13;;
37771;SDS011;23610;59.380;24.642;2023-05-10T04:32:26;5.65;;;3.72;;
37771;SDS011;23610;59.380;24.642;2023-05-10T04:37:28;5.82;;;3.05;;
37771;SDS011;23610;59.380;24.642;2023-05-10T04:42:31;3.65;;;2.97;;
37771;SDS011;23610;59.380;24.642;2023-05-10T04:47:34;9.02;;;3.03;;
37771;SDS011;23610;59.380;24.642;2023-05-10T04:52:36;6.80;;;2.25;;
37771;SDS011;23610;59.380;24.642;2023-05-10T04:57:39;4.25;;;2.55;;
37771;SDS011;23610;59.380;24.642;2023-05-10T05:02:44;6.47;;;1.83;;
37771;SDS011;23610;59.380;24.642;2023-05-10T05:07:47;6.40;;;3.03;;
37771;SDS011;23610;59.380;24.642;2023-05-10T05:12:50;5.93;;;2.50;;
37771;SDS011;23610;59.380;24.642;2023-05-10T05:17:53;7.35;;;2.47;;
37771;SDS011;23610;59.380;24.642;2023-05-10T05:22:55;5.88;;;2.20;;
37771;SDS011;23610;59.380;24.642;2023-05-10T05:27:58;3.85;;;2.20;;
37771;SDS011;23610;59.380;24.642;2023-05-10T05:33:00;6.07;;;2.50;;
37771;SDS011;23610;59.380;24.642;2023-05-10T05:38:03;6.60;;;2.58;;
37771;SDS011;23610;59.380;24.642;2023-05-10T05:43:06;9.57;;;3.00;;
37771;SDS011;23610;59.380;24.642;2023-05-10T05:48:08;3.95;;;3.53;;
37771;SDS011;23610;59.380;24.642;2023-05-10T05:53:11;8.02;;;2.85;;
37771;SDS011;23610;59.380;24.642;2023-05-10T05:58:14;4.07;;;2.80;;
37771;SDS011;23610;59.380;24.642;2023-05-10T06:03:17;9.95;;;2.95;;
37771;SDS011;23610;59.380;24.642;2023-05-10T06:08:20;8.38;;;2.70;;
37771;SDS011;23610;59.380;24.642;2023-05-10T06:13:23;4.65;;;2.17;;
37771;SDS011;23610;59.380;24.642;2023-05-10T06:18:26;4.68;;;2.10;;
37771;SDS011;23610;59.380;24.642;2023-05-10T06:23:28;4.50;;;1.95;;
37771;SDS011;23610;59.380;24.642;2023-05-10T06:28:31;18.33;;;2.80;;
37771;SDS011;23610;59.380;24.642;2023-05-10T06:33:34;3.50;;;2.10;;
37771;SDS011;23610;59.380;24.642;2023-05-10T06:38:37;7.18;;;3.20;;
37771;SDS011;23610;59.380;24.642;2023-05-10T06:43:39;7.88;;;3.00;;
37771;SDS011;23610;59.380;24.642;2023-05-10T06:48:42;12.75;;;2.35;;
37771;SDS011;23610;59.380;24.642;2023-05-10T06:53:45;5.95;;;3.03;;
37771;SDS011;23610;59.380;24.642;2023-05-10T06:58:48;4.80;;;2.67;;
37771;SDS011;23610;59.380;24.642;2023-05-10T07:03:51;6.30;;;2.58;;
37771;SDS011;23610;59.380;24.642;2023-05-10T07:08:53;7.50;;;2.42;;
37771;SDS011;23610;59.380;24.642;2023-05-10T07:13:56;7.63;;;2.70;;
37771;SDS011;23610;59.380;24.642;2023-05-10T07:18:59;6.85;;;2.38;;
37771;SDS011;23610;59.380;24.642;2023-05-10T07:24:01;8.02;;;2.40;;
37771;SDS011;23610;59.380;24.642;2023-05-10T07:29:04;4.47;;;2.42;;
37771;SDS011;23610;59.380;24.642;2023-05-10T07:34:07;4.95;;;2.47;;
37771;SDS011;23610;59.380;24.642;2023-05-10T07:39:10;7.13;;;3.25;;
37771;SDS011;23610;59.380;24.642;2023-05-10T07:44:21;3.90;;;2.25;;
37771;SDS011;23610;59.380;24.642;2023-05-10T07:49:24;4.05;;;2.30;;
37771;SDS011;23610;59.380;24.642;2023-05-10T07:54:27;8.82;;;2.40;;
37771;SDS011;23610;59.380;24.642;2023-05-10T07:59:30;6.00;;;2.00;;
37771;SDS011;23610;59.380;24.642;2023-05-10T08:04:34;6.60;;;2.30;;
37771;SDS011;23610;59.380;24.642;2023-05-10T08:09:36;2.97;;;2.30;;
37771;SDS011;23610;59.380;24.642;2023-05-10T08:14:39;4.57;;;2.13;;
37771;SDS011;23610;59.380;24.642;2023-05-10T08:19:42;4.55;;;1.77;;
37771;SDS011;23610;59.380;24.642;2023-05-10T08:24:44;3.83;;;1.95;;
37771;SDS011;23610;59.380;24.642;2023-05-10T08:29:47;10.77;;;2.67;;
37771;SDS011;23610;59.380;24.642;2023-05-10T08:34:51;5.60;;;2.33;;
37771;SDS011;23610;59.380;24.642;2023-05-10T08:39:53;4.25;;;2.83;;
37771;SDS011;23610;59.380;24.642;2023-05-10T08:44:55;3.65;;;1.77;;
37771;SDS011;23610;59.380;24.642;2023-05-10T08:50:00;6.50;;;2.55;;
37771;SDS011;23610;59.380;24.642;2023-05-10T08:55:05;5.78;;;2.13;;
37771;SDS011;23610;59.380;24.642;2023-05-10T09:00:08;2.95;;;2.10;;
37771;SDS011;23610;59.380;24.642;2023-05-10T09:05:13;5.78;;;1.77;;
37771;SDS011;23610;59.380;24.642;2023-05-10T09:10:17;3.38;;;2.40;;
37771;SDS011;23610;59.380;24.642;2023-05-10T09:15:21;4.53;;;2.60;;
37771;SDS011;23610;59.380;24.642;2023-05-10T09:20:23;4.32;;;1.90;;
37771;SDS011;23610;59.380;24.642;2023-05-10T09:25:26;2.17;;;1.98;;
37771;SDS011;23610;59.380;24.642;2023-05-10T09:30:29;3.60;;;2.13;;
37771;SDS011;23610;59.380;24.642;2023-05-10T09:35:33;5.78;;;2.38;;
37771;SDS011;23610;59.380;24.642;2023-05-10T09:40:35;6.07;;;2.15;;
37771;SDS011;23610;59.380;24.642;2023-05-10T09:45:38;4.97;;;2.58;;
37771;SDS011;23610;59.380;24.642;2023-05-10T09:50:43;6.32;;;2.00;;
37771;SDS011;23610;59.380;24.642;2023-05-10T09:55:46;2.85;;;2.13;;
37771;SDS011;23610;59.380;24.642;2023-05-10T10:00:50;5.28;;;2.60;;
37771;SDS011;23610;59.380;24.642;2023-05-10T10:05:53;3.13;;;2.00;;
37771;SDS011;23610;59.380;24.642;2023-05-10T10:10:57;4.60;;;2.20;;
37771;SDS011;23610;59.380;24.642;2023-05-10T10:16:00;3.80;;;1.70;;
37771;SDS011;23610;59.380;24.642;2023-05-10T10:21:03;4.50;;;2.33;;
37771;SDS011;23610;59.380;24.642;2023-05-10T10:26:10;5.95;;;2.13;;
37771;SDS011;23610;59.380;24.642;2023-05-10T10:31:17;2.42;;;1.60;;
37771;SDS011;23610;59.380;24.642;2023-05-10T10:36:28;2.20;;;2.00;;
37771;SDS011;23610;59.380;24.642;2023-05-10T10:41:35;8.60;;;1.58;;
37771;SDS011;23610;59.380;24.642;2023-05-10T10:47:01;2.28;;;1.67;;
37771;SDS011;23610;59.380;24.642;2023-05-10T10:57:25;5.32;;;2.20;;
37771;SDS011;23610;59.380;24.642;2023-05-10T11:02:42;3.85;;;1.65;;
37771;SDS011;23610;59.380;24.642;2023-05-10T11:07:56;1.83;;;1.67;;
37771;SDS011;23610;59.380;24.642;2023-05-10T11:13:05;5.70;;;2.10;;
37771;SDS011;23610;59.380;24.642;2023-05-10T11:18:16;4.68;;;2.00;;
37771;SDS011;23610;59.380;24.642;2023-05-10T11:28:42;6.15;;;2.25;;
37771;SDS011;23610;59.380;24.642;2023-05-10T11:33:49;1.88;;;1.60;;
37771;SDS011;23610;59.380;24.642;2023-05-10T11:38:55;3.38;;;1.80;;
37771;SDS011;23610;59.380;24.642;2023-05-10T11:43:58;6.75;;;2.05;;
37771;SDS011;23610;59.380;24.642;2023-05-10T11:49:01;10.88;;;2.17;;
37771;SDS011;23610;59.380;24.642;2023-05-10T11:54:09;3.75;;;2.33;;
37771;SDS011;23610;59.380;24.642;2023-05-10T11:59:13;4.25;;;1.75;;
37771;SDS011;23610;59.380;24.642;2023-05-10T12:04:16;3.92;;;1.92;;
37771;SDS011;23610;59.380;24.642;2023-05-10T12:09:19;4.18;;;2.03;;
37771;SDS011;23610;59.380;24.642;2023-05-10T12:14:40;4.20;;;2.15;;
37771;SDS011;23610;59.380;24.642;2023-05-10T12:19:42;4.13;;;2.28;;
37771;SDS011;23610;59.380;24.642;2023-05-10T12:24:45;5.45;;;2.20;;
37771;SDS011;23610;59.380;24.642;2023-05-10T12:29:47;4.90;;;1.50;;
37771;SDS011;23610;59.380;24.642;2023-05-10T12:34:51;9.20;;;2.22;;
37771;SDS011;23610;59.380;24.642;2023-05-10T12:39:54;4.57;;;1.85;;
37771;SDS011;23610;59.380;24.642;2023-05-10T12:44:57;3.75;;;2.08;;
37771;SDS011;23610;59.380;24.642;2023-05-10T12:50:00;2.15;;;1.75;;
37771;SDS011;23610;59.380;24.642;2023-05-10T12:55:04;2.03;;;1.87;;
37771;SDS011;23610;59.380;24.642;2023-05-10T13:00:06;5.20;;;1.70;;
37771;SDS011;23610;59.380;24.642;2023-05-10T13:05:10;2.63;;;2.40;;
37771;SDS011;23610;59.380;24.642;2023-05-10T13:10:14;3.23;;;1.97;;
37771;SDS011;23610;59.380;24.642;2023-05-10T13:15:17;2.47;;;1.98;;
37771;SDS011;23610;59.380;24.642;2023-05-10T13:20:40;5.07;;;2.22;;
37771;SDS011;23610;59.380;24.642;2023-05-10T13:25:44;1.63;;;1.52;;
37771;SDS011;23610;59.380;24.642;2023-05-10T13:30:46;7.00;;;1.88;;
37771;SDS011;23610;59.380;24.642;2023-05-10T13:35:49;5.43;;;2.35;;
37771;SDS011;23610;59.380;24.642;2023-05-10T13:40:53;3.27;;;2.20;;
37771;SDS011;23610;59.380;24.642;2023-05-10T13:45:56;2.25;;;1.90;;
37771;SDS011;23610;59.380;24.642;2023-05-10T13:50:58;12.10;;;2.67;;
37771;SDS011;23610;59.380;24.642;2023-05-10T13:56:01;9.15;;;2.30;;
37771;SDS011;23610;59.380;24.642;2023-05-10T14:01:04;9.10;;;2.17;;
37771;SDS011;23610;59.380;24.642;2023-05-10T14:06:07;5.20;;;2.08;;
37771;SDS011;23610;59.380;24.642;2023-05-10T14:11:10;3.03;;;2.05;;
37771;SDS011;23610;59.380;24.642;2023-05-10T14:16:13;2.50;;;2.10;;
37771;SDS011;23610;59.380;24.642;2023-05-10T14:21:16;4.35;;;2.42;;
37771;SDS011;23610;59.380;24.642;2023-05-10T14:26:18;8.45;;;2.22;;
37771;SDS011;23610;59.380;24.642;2023-05-10T14:31:22;6.18;;;2.55;;
37771;SDS011;23610;59.380;24.642;2023-05-10T14:36:40;3.17;;;1.95;;
37771;SDS011;23610;59.380;24.642;2023-05-10T14:41:42;4.05;;;2.15;;
37771;SDS011;23610;59.380;24.642;2023-05-10T14:46:47;5.37;;;2.23;;
37771;SDS011;23610;59.380;24.642;2023-05-10T14:51:50;3.22;;;2.17;;
37771;SDS011;23610;59.380;24.642;2023-05-10T14:56:52;10.85;;;5.97;;
37771;SDS011;23610;59.380;24.642;2023-05-10T15:01:55;7.15;;;5.13;;
37771;SDS011;23610;59.380;24.642;2023-05-10T15:06:58;2.35;;;1.80;;
37771;SDS011;23610;59.380;24.642;2023-05-10T15:12:01;2.80;;;1.95;;
37771;SDS011;23610;59.380;24.642;2023-05-10T15:17:05;3.85;;;2.00;;
37771;SDS011;23610;59.380;24.642;2023-05-10T15:22:09;5.65;;;4.20;;
37771;SDS011;23610;59.380;24.642;2023-05-10T15:27:11;7.35;;;2.30;;
37771;SDS011;23610;59.380;24.642;2023-05-10T15:32:14;5.63;;;2.10;;
37771;SDS011;23610;59.380;24.642;2023-05-10T15:37:16;8.65;;;2.53;;
37771;SDS011;23610;59.380;24.642;2023-05-10T15:42:19;3.70;;;2.42;;
37771;SDS011;23610;59.380;24.642;2023-05-10T15:47:22;2.50;;;1.90;;
37771;SDS011;23610;59.380;24.642;2023-05-10T15:52:25;4.00;;;3.00;;
37771;SDS011;23610;59.380;24.642;2023-05-10T15:57:28;5.53;;;2.10;;
37771;SDS011;23610;59.380;24.642;2023-05-10T16:02:31;6.75;;;2.13;;
37771;SDS011;23610;59.380;24.642;2023-05-10T16:07:34;4.43;;;2.38;;
37771;SDS011;23610;59.380;24.642;2023-05-10T16:12:37;13.32;;;2.30;;
37771;SDS011;23610;59.380;24.642;2023-05-10T16:17:40;2.92;;;2.50;;
37771;SDS011;23610;59.380;24.642;2023-05-10T16:22:43;3.90;;;1.90;;
37771;SDS011;23610;59.380;24.642;2023-05-10T16:27:45;7.50;;;2.10;;
37771;SDS011;23610;59.380;24.642;2023-05-10T16:32:48;7.32;;;1.92;;
37771;SDS011;23610;59.380;24.642;2023-05-10T16:37:51;5.57;;;1.63;;
37771;SDS011;23610;59.380;24.642;2023-05-10T16:42:54;5.03;;;2.30;;
37771;SDS011;23610;59.380;24.642;2023-05-10T16:47:57;5.18;;;1.88;;
37771;SDS011;23610;59.380;24.642;2023-05-10T16:52:59;5.22;;;2.85;;
37771;SDS011;23610;59.380;24.642;2023-05-10T16:58:02;2.88;;;2.47;;
37771;SDS011;23610;59.380;24.642;2023-05-10T17:03:04;4.00;;;2.10;;
37771;SDS011;23610;59.380;24.642;2023-05-10T17:08:08;3.95;;;1.83;;
37771;SDS011;23610;59.380;24.642;2023-05-10T17:13:10;4.75;;;2.35;;
37771;SDS011;23610;59.380;24.642;2023-05-10T17:18:13;6.07;;;2.05;;
37771;SDS011;23610;59.380;24.642;2023-05-10T17:23:15;7.53;;;2.05;;
37771;SDS011;23610;59.380;24.642;2023-05-10T17:28:18;3.78;;;2.38;;
37771;SDS011;23610;59.380;24.642;2023-05-10T17:33:20;8.75;;;1.95;;
37771;SDS011;23610;59.380;24.642;2023-05-10T17:38:23;7.40;;;2.30;;
37771;SDS011;23610;59.380;24.642;2023-05-10T17:43:25;3.53;;;1.85;;
37771;SDS011;23610;59.380;24.642;2023-05-10T17:48:28;4.10;;;3.00;;
37771;SDS011;23610;59.380;24.642;2023-05-10T17:53:31;5.13;;;2.90;;
37771;SDS011;23610;59.380;24.642;2023-05-10T17:58:35;13.35;;;2.65;;
37771;SDS011;23610;59.380;24.642;2023-05-10T18:03:38;3.88;;;2.10;;
37771;SDS011;23610;59.380;24.642;2023-05-10T18:08:41;5.07;;;2.53;;
37771;SDS011;23610;59.380;24.642;2023-05-10T18:13:45;11.02;;;2.55;;
37771;SDS011;23610;59.380;24.642;2023-05-10T18:18:47;8.20;;;2.92;;
37771;SDS011;23610;59.380;24.642;2023-05-10T18:23:50;9.10;;;2.70;;
37771;SDS011;23610;59.380;24.642;2023-05-10T18:28:52;4.57;;;2.45;;
37771;SDS011;23610;59.380;24.642;2023-05-10T18:33:55;3.80;;;2.67;;
37771;SDS011;23610;59.380;24.642;2023-05-10T18:38:58;7.65;;;2.63;;
37771;SDS011;23610;59.380;24.642;2023-05-10T18:44:00;10.57;;;3.15;;
37771;SDS011;23610;59.380;24.642;2023-05-10T18:49:03;6.97;;;2.45;;
37771;SDS011;23610;59.380;24.642;2023-05-10T18:54:06;6.55;;;2.58;;
37771;SDS011;23610;59.380;24.642;2023-05-10T18:59:09;2.72;;;2.40;;
37771;SDS011;23610;59.380;24.642;2023-05-10T19:04:13;5.35;;;2.80;;
37771;SDS011;23610;59.380;24.642;2023-05-10T19:09:15;5.78;;;3.08;;
37771;SDS011;23610;59.380;24.642;2023-05-10T19:14:20;10.30;;;4.03;;
37771;SDS011;23610;59.380;24.642;2023-05-10T19:19:28;9.32;;;4.68;;
37771;SDS011;23610;59.380;24.642;2023-05-10T19:24:31;7.75;;;4.32;;
37771;SDS011;23610;59.380;24.642;2023-05-10T19:29:35;12.68;;;5.88;;
37771;SDS011;23610;59.380;24.642;2023-05-10T19:34:37;7.25;;;4.47;;
37771;SDS011;23610;59.380;24.642;2023-05-10T19:39:40;8.45;;;4.60;;
37771;SDS011;23610;59.380;24.642;2023-05-10T19:44:42;8.13;;;5.18;;
37771;SDS011;23610;59.380;24.642;2023-05-10T19:49:45;13.32;;;4.50;;
37771;SDS011;23610;59.380;24.642;2023-05-10T19:54:47;6.07;;;4.53;;
37771;SDS011;23610;59.380;24.642;2023-05-10T19:59:50;13.73;;;7.75;;
37771;SDS011;23610;59.380;24.642;2023-05-10T20:04:53;8.60;;;6.07;;
37771;SDS011;23610;59.380;24.642;2023-05-10T20:09:56;9.95;;;6.07;;
37771;SDS011;23610;59.380;24.642;2023-05-10T20:14:58;11.50;;;6.97;;
37771;SDS011;23610;59.380;24.642;2023-05-10T20:20:01;9.45;;;5.85;;
37771;SDS011;23610;59.380;24.642;2023-05-10T20:25:04;13.55;;;7.15;;
37771;SDS011;23610;59.380;24.642;2023-05-10T20:30:08;8.85;;;6.03;;
37771;SDS011;23610;59.380;24.642;2023-05-10T20:35:11;8.82;;;6.65;;
37771;SDS011;23610;59.380;24.642;2023-05-10T20:40:14;11.13;;;7.13;;
37771;SDS011;23610;59.380;24.642;2023-05-10T20:45:17;15.13;;;6.63;;
37771;SDS011;23610;59.380;24.642;2023-05-10T20:50:20;12.35;;;7.60;;
37771;SDS011;23610;59.380;24.642;2023-05-10T20:55:22;12.00;;;7.35;;
37771;SDS011;23610;59.380;24.642;2023-05-10T21:00:25;9.15;;;6.80;;
37771;SDS011;23610;59.380;24.642;2023-05-10T21:05:27;13.57;;;7.10;;
37771;SDS011;23610;59.380;24.642;2023-05-10T21:10:31;13.75;;;6.57;;
37771;SDS011;23610;59.380;24.642;2023-05-10T21:15:34;15.40;;;9.02;;
37771;SDS011;23610;59.380;24.642;2023-05-10T21:20:36;18.30;;;9.75;;
37771;SDS011;23610;59.380;24.642;2023-05-10T21:25:39;13.07;;;8.45;;
37771;SDS011;23610;59.380;24.642;2023-05-10T21:30:41;20.30;;;9.40;;
37771;SDS011;23610;59.380;24.642;2023-05-10T21:35:44;19.20;;;9.95;;
37771;SDS011;23610;59.380;24.642;2023-05-10T21:40:46;19.70;;;11.05;;
37771;SDS011;23610;59.380;24.642;2023-05-10T21:45:49;20.15;;;10.95;;
37771;SDS011;23610;59.380;24.642;2023-05-10T21:50:51;22.85;;;11.43;;
37771;SDS011;23610;59.380;24.642;2023-05-10T21:55:54;25.75;;;10.68;;
37771;SDS011;23610;59.380;24.642;2023-05-10T22:00:57;27.13;;;11.32;;
37771;SDS011;23610;59.380;24.642;2023-05-10T22:05:59;21.73;;;11.57;;
37771;SDS011;23610;59.380;24.642;2023-05-10T22:11:02;17.92;;;10.80;;
37771;SDS011;23610;59.380;24.642;2023-05-10T22:16:05;21.73;;;12.70;;
37771;SDS011;23610;59.380;24.642;2023-05-10T22:21:07;22.63;;;11.18;;
37771;SDS011;23610;59.380;24.642;2023-05-10T22:26:11;22.73;;;11.13;;
37771;SDS011;23610;59.380;24.642;2023-05-10T22:31:13;17.10;;;9.80;;
37771;SDS011;23610;59.380;24.642;2023-05-10T22:36:16;16.00;;;9.20;;
37771;SDS011;23610;59.380;24.642;2023-05-10T22:41:20;17.25;;;9.85;;
37771;SDS011;23610;59.380;24.642;2023-05-10T22:46:23;27.63;;;10.55;;
37771;SDS011;23610;59.380;24.642;2023-05-10T22:51:26;17.55;;;9.82;;
37771;SDS011;23610;59.380;24.642;2023-05-10T22:56:29;17.27;;;10.10;;
37771;SDS011;23610;59.380;24.642;2023-05-10T23:01:32;13.77;;;7.85;;
37771;SDS011;23610;59.380;24.642;2023-05-10T23:06:35;13.95;;;8.77;;
37771;SDS011;23610;59.380;24.642;2023-05-10T23:11:37;13.98;;;7.80;;
37771;SDS011;23610;59.380;24.642;2023-05-10T23:16:40;13.40;;;7.93;;
37771;SDS011;23610;59.380;24.642;2023-05-10T23:21:42;12.90;;;7.28;;
37771;SDS011;23610;59.380;24.642;2023-05-10T23:26:47;15.53;;;7.13;;
37771;SDS011;23610;59.380;24.642;2023-05-10T23:31:52;11.35;;;7.15;;
37771;SDS011;23610;59.380;24.642;2023-05-10T23:36:55;13.15;;;7.35;;
37771;SDS011;23610;59.380;24.642;2023-05-10T23:41:57;11.73;;;6.97;;
37771;SDS011;23610;59.380;24.642;2023-05-10T23:47:00;11.18;;;6.88;;
37771;SDS011;23610;59.380;24.642;2023-05-10T23:52:03;8.75;;;6.13;;
37771;SDS011;23610;59.380;24.642;2023-05-10T23:57:05;15.57;;;7.25;;
